X  Kiinni Metar Aviation säätiedot     EIKN Ireland West Knock Airport
Lämpötila
15°C Lämpötila
15°C Kastepiste
100% Kosteus



Tuuli
11 KM/T
7 MPH
3 M/S
6 KTS



180°
Eteläinen
Nykyiset olosuhteet

Kevyt Sadekuuroja Sade Kevyt Sadekuuroja Sade
Paine 991.92 (hPa) - 29.29 (inHg)
Näkyvyys 2.5 (maili) - 4 (km)
Lentokenttä
Lentokentän koodi EIKN

Sijainti: Ireland West Knock Airport
Etäisyys: 93 (km)

Metar:
EIKN 051100Z 18006KT 140V220 4300 -SHRA SCT004 BKN011 BKN017CB 15/15 Q0992 NOSIG

Aika: 05-08-2021 12:00 IST